Time;durP1;ratioP1;P1;durP2;ratioP2;P2;SDS_P1;SDS_P2;PMS_P1;PMS_P2;Temp;Humidity;BMP_temperature;BMP_pressure;BME280_temperature;BME280_humidity;BME280_pressure;Samples;Min_cycle;Max_cycle;Signal;HPM_P1;HPM_P2
2022/04/07 00:00:24;;;;;;;0.00;0.00;;;18.60;39.60;;;;;;5097268;28;20028;-82
2022/04/07 00:02:52;;;;;;;0.20;0.20;;;18.80;38.40;;;;;;5104187;28;20111;-81
2022/04/07 00:05:18;;;;;;;0.95;0.95;;;19.00;37.70;;;;;;5086153;28;20032;-82
2022/04/07 00:07:44;;;;;;;3.65;0.22;;;19.10;37.60;;;;;;5107602;28;20059;-80
2022/04/07 00:10:10;;;;;;;6.78;0.75;;;19.30;37.00;;;;;;5088913;28;20104;-81
2022/04/07 00:12:37;;;;;;;0.77;0.77;;;19.70;36.40;;;;;;5105572;28;20028;-80
2022/04/07 00:15:04;;;;;;;0.55;0.30;;;19.70;36.10;;;;;;5085493;28;20028;-81
2022/04/07 00:17:30;;;;;;;0.73;0.60;;;19.90;35.90;;;;;;5105150;28;20854;-80
2022/04/07 00:19:56;;;;;;;0.00;0.00;;;19.90;35.70;;;;;;5106986;28;20107;-82
2022/04/07 00:22:22;;;;;;;8.35;0.57;;;20.00;35.50;;;;;;5087873;28;20024;-80
2022/04/07 00:24:48;;;;;;;3.38;0.28;;;20.10;35.20;;;;;;5102195;28;20035;-82
2022/04/07 00:27:14;;;;;;;0.00;0.00;;;20.10;35.10;;;;;;5103077;28;20077;-79
2022/04/07 00:29:40;;;;;;;0.00;0.00;;;20.40;34.70;;;;;;5104557;28;20024;-81
2022/04/07 00:32:07;;;;;;;0.00;0.00;;;20.40;34.50;;;;;;5087081;28;20114;-83
2022/04/07 00:34:36;;;;;;;0.43;0.38;;;20.30;34.20;;;;;;5102569;28;20352;-80
2022/04/07 00:37:02;;;;;;;0.05;0.05;;;20.50;33.80;;;;;;5105881;28;20020;-83
2022/04/07 00:39:28;;;;;;;0.00;0.00;;;20.50;33.60;;;;;;5104326;28;20371;-83
2022/04/07 00:41:55;;;;;;;0.00;0.00;;;20.60;33.80;;;;;;5103098;28;20062;-82
2022/04/07 00:44:22;;;;;;;0.15;0.10;;;20.70;33.10;;;;;;5105608;28;20113;-83
2022/04/07 00:46:49;;;;;;;0.22;0.20;;;20.70;33.30;;;;;;5102983;28;20020;-81
2022/04/07 00:49:16;;;;;;;0.80;0.38;;;20.70;33.10;;;;;;5086485;28;20608;-81
2022/04/07 00:51:44;;;;;;;0.00;0.00;;;20.90;32.90;;;;;;5102593;28;20057;-83
2022/04/07 00:54:11;;;;;;;0.32;0.30;;;20.90;33.10;;;;;;5082744;28;20024;-83
2022/04/07 00:56:38;;;;;;;0.85;0.10;;;21.10;33.10;;;;;;5106528;28;20024;-79
2022/04/07 00:59:06;;;;;;;2.90;0.95;;;21.00;32.90;;;;;;5088530;28;20032;-80
2022/04/07 01:01:32;;;;;;;0.00;0.00;;;21.00;33.20;;;;;;5098780;28;20031;-80
2022/04/07 01:03:59;;;;;;;0.00;0.00;;;21.00;33.30;;;;;;5080551;28;20051;-80
2022/04/07 01:06:25;;;;;;;0.00;0.00;;;20.90;33.80;;;;;;5081582;28;20371;-80
2022/04/07 01:08:52;;;;;;;0.28;0.10;;;20.80;33.90;;;;;;5082233;28;20069;-81
2022/04/07 01:11:18;;;;;;;0.20;0.20;;;20.90;33.50;;;;;;5082018;28;20031;-79
2022/04/07 01:13:52;;;;;;;0.00;0.00;;;20.90;33.40;;;;;;5082600;28;20379;-78
2022/04/07 01:16:21;;;;;;;0.82;0.65;;;21.00;33.40;;;;;;5085421;28;20024;-80
2022/04/07 01:18:48;;;;;;;1.00;0.52;;;21.10;32.80;;;;;;5080944;28;20012;-79
2022/04/07 01:21:17;;;;;;;2.10;0.73;;;21.20;32.90;;;;;;5085409;28;20051;-79
2022/04/07 01:24:09;;;;;;;1.48;1.38;;;21.40;32.50;;;;;;5080691;28;20028;-79
2022/04/07 01:26:40;;;;;;;0.15;0.15;;;21.60;32.50;;;;;;5079689;28;20024;-81
2022/04/07 01:29:13;;;;;;;1.30;0.40;;;21.50;32.50;;;;;;5077536;28;20083;-80
2022/04/07 01:31:40;;;;;;;1.38;0.43;;;21.60;32.60;;;;;;5088662;28;20060;-78
2022/04/07 01:34:15;;;;;;;2.00;0.90;;;21.70;32.60;;;;;;5078424;28;20025;-79
2022/04/07 01:36:43;;;;;;;5.72;1.95;;;21.70;32.50;;;;;;5073864;28;20574;-78
2022/04/07 01:39:09;;;;;;;6.40;1.08;;;21.70;32.50;;;;;;5076829;28;20439;-79
2022/04/07 01:41:40;;;;;;;1.55;0.70;;;21.70;32.20;;;;;;5080388;28;20031;-80
2022/04/07 01:44:11;;;;;;;1.20;0.90;;;21.80;32.30;;;;;;5087979;28;20103;-80
2022/04/07 01:46:38;;;;;;;2.42;1.13;;;21.90;32.40;;;;;;5064851;28;20039;-79
2022/04/07 01:49:05;;;;;;;0.68;0.63;;;21.90;32.40;;;;;;5079905;28;20158;-79
2022/04/07 01:51:34;;;;;;;0.63;0.20;;;21.90;32.50;;;;;;5076909;28;20494;-80
2022/04/07 01:54:01;;;;;;;2.95;0.60;;;21.90;32.60;;;;;;5086569;28;20028;-80
2022/04/07 01:56:30;;;;;;;0.30;0.10;;;22.10;32.50;;;;;;5076747;28;20039;-79
2022/04/07 01:58:57;;;;;;;0.00;0.00;;;22.10;32.40;;;;;;5069065;28;20278;-81
2022/04/07 02:01:23;;;;;;;0.28;0.00;;;22.20;32.60;;;;;;5078296;28;20021;-81
2022/04/07 02:03:49;;;;;;;3.60;0.82;;;22.40;32.70;;;;;;5087406;28;20059;-80
2022/04/07 02:06:19;;;;;;;0.60;0.60;;;22.70;32.10;;;;;;5077347;28;20052;-78
2022/04/07 02:08:46;;;;;;;0.25;0.25;;;22.90;31.40;;;;;;5074953;28;20028;-80
2022/04/07 02:11:12;;;;;;;0.40;0.40;;;22.80;31.70;;;;;;5080612;28;20028;-81
2022/04/07 02:13:40;;;;;;;2.65;0.93;;;22.90;31.90;;;;;;5059032;28;20032;-78
2022/04/07 02:16:10;;;;;;;0.00;0.00;;;23.00;31.70;;;;;;5086980;28;20328;-78
2022/04/07 02:18:38;;;;;;;0.17;0.10;;;23.20;31.70;;;;;;5079636;28;20025;-78
2022/04/07 02:21:04;;;;;;;9.25;0.52;;;23.50;31.30;;;;;;5080768;28;20023;-82
2022/04/07 02:23:34;;;;;;;0.28;0.28;;;23.90;30.90;;;;;;5057508;28;20068;-82
2022/04/07 02:26:00;;;;;;;1.85;0.65;;;24.20;30.90;;;;;;5080636;28;20028;-81
2022/04/07 02:28:27;;;;;;;1.23;0.75;;;24.50;30.70;;;;;;5085478;28;20477;-82
2022/04/07 02:30:53;;;;;;;3.67;1.52;;;24.60;30.30;;;;;;5065737;28;20035;-82
2022/04/07 02:33:19;;;;;;;1.75;0.45;;;24.50;30.50;;;;;;5068480;28;20086;-82
2022/04/07 02:35:45;;;;;;;4.28;3.08;;;24.00;30.90;;;;;;5078939;28;20110;-81
2022/04/07 02:38:11;;;;;;;2.35;1.60;;;23.90;31.30;;;;;;5092524;28;20016;-82
2022/04/07 02:40:37;;;;;;;0.70;0.35;;;23.70;31.60;;;;;;5088010;28;20027;-81
2022/04/07 02:43:03;;;;;;;0.65;0.35;;;23.70;32.20;;;;;;5088345;28;20059;-82
2022/04/07 02:45:30;;;;;;;1.25;0.90;;;23.90;32.20;;;;;;5075012;28;20035;-80
2022/04/07 02:47:56;;;;;;;0.40;0.40;;;24.00;31.40;;;;;;5080946;28;20035;-81
2022/04/07 02:50:22;;;;;;;3.35;1.40;;;23.90;31.50;;;;;;5083787;28;20024;-80
2022/04/07 02:52:48;;;;;;;6.05;2.40;;;23.80;31.40;;;;;;5079459;28;20035;-80
2022/04/07 02:55:14;;;;;;;8.20;0.65;;;23.50;32.60;;;;;;5083492;28;20066;-81
2022/04/07 02:57:41;;;;;;;2.72;2.63;;;23.70;32.70;;;;;;5084938;28;20222;-82
2022/04/07 03:00:08;;;;;;;6.03;1.48;;;23.80;32.40;;;;;;5083427;28;20642;-82
2022/04/07 03:02:37;;;;;;;7.80;0.80;;;24.00;32.20;;;;;;5072300;28;20051;-82
2022/04/07 03:05:03;;;;;;;2.97;0.75;;;23.80;33.10;;;;;;5081122;28;20078;-83
2022/04/07 03:07:32;;;;;;;0.98;0.80;;;23.80;33.40;;;;;;5061053;28;20515;-84
2022/04/07 03:09:58;;;;;;;3.60;2.50;;;23.90;33.90;;;;;;5074059;28;20036;-82
2022/04/07 03:12:24;;;;;;;11.30;1.45;;;24.00;33.50;;;;;;5060204;28;20051;-83
2022/04/07 03:14:51;;;;;;;1.85;0.35;;;24.00;34.10;;;;;;5085865;28;20110;-82
2022/04/07 03:17:17;;;;;;;4.20;1.80;;;24.20;34.40;;;;;;5065767;28;20020;-83
2022/04/07 03:19:44;;;;;;;6.43;1.63;;;24.30;33.80;;;;;;5067879;28;20031;-81
2022/04/07 03:22:11;;;;;;;2.80;1.58;;;24.40;33.30;;;;;;5069788;28;20028;-83
2022/04/07 03:24:37;;;;;;;6.28;2.15;;;24.20;33.10;;;;;;5066239;28;20024;-83
2022/04/07 03:27:05;;;;;;;9.00;1.88;;;24.30;32.90;;;;;;5085650;28;20024;-83
2022/04/07 03:29:32;;;;;;;9.88;1.77;;;24.30;33.10;;;;;;5087609;28;20024;-82
2022/04/07 03:31:58;;;;;;;2.55;1.52;;;24.50;33.60;;;;;;5074726;28;20028;-81
2022/04/07 03:34:25;;;;;;;1.92;0.95;;;24.60;33.90;;;;;;5069681;28;20023;-79
2022/04/07 03:36:51;;;;;;;13.70;1.67;;;24.80;33.60;;;;;;5095283;28;20024;-82
2022/04/07 03:39:17;;;;;;;2.22;1.25;;;24.80;33.80;;;;;;5091420;28;20585;-82
2022/04/07 03:41:43;;;;;;;4.07;1.85;;;;;;;;;;5085374;28;20023;-83
2022/04/07 03:44:10;;;;;;;9.65;2.92;;;24.80;32.20;;;;;;5075373;28;20021;-83
2022/04/07 03:46:37;;;;;;;7.32;1.92;;;24.80;32.20;;;;;;5088180;28;20048;-82
2022/04/07 03:49:03;;;;;;;3.30;2.08;;;24.90;30.30;;;;;;5086311;28;20027;-84
2022/04/07 03:51:30;;;;;;;8.13;2.25;;;25.10;30.00;;;;;;5068168;28;20375;-82
2022/04/07 03:53:56;;;;;;;23.67;0.65;;;25.30;29.80;;;;;;5061915;28;20055;-84
2022/04/07 03:56:22;;;;;;;0.60;0.60;;;25.50;29.60;;;;;;5064876;28;20039;-84
2022/04/07 03:58:51;;;;;;;4.60;0.47;;;25.50;29.80;;;;;;5087241;28;20055;-83
2022/04/07 04:01:20;;;;;;;0.25;0.25;;;25.50;30.20;;;;;;5086541;28;20029;-84
2022/04/07 04:03:49;;;;;;;3.78;1.67;;;25.60;30.50;;;;;;5063144;28;20135;-83
2022/04/07 04:06:15;;;;;;;2.38;1.15;;;25.70;30.50;;;;;;5089623;28;20356;-82
2022/04/07 04:08:41;;;;;;;6.80;1.65;;;25.80;30.40;;;;;;5082863;28;20538;-83
2022/04/07 04:11:07;;;;;;;2.17;1.17;;;25.80;30.30;;;;;;5067157;28;20081;-86
2022/04/07 04:13:33;;;;;;;4.88;2.05;;;25.80;30.00;;;;;;5068037;28;20028;-85
2022/04/07 04:16:01;;;;;;;3.60;1.23;;;25.90;29.90;;;;;;5065385;28;20025;-81
2022/04/07 04:18:28;;;;;;;5.00;2.25;;;25.80;30.00;;;;;;5084962;28;20097;-82
2022/04/07 04:20:54;;;;;;;2.40;1.42;;;25.90;30.00;;;;;;5068777;28;20025;-79
2022/04/07 04:23:20;;;;;;;2.72;1.90;;;26.00;30.00;;;;;;5083135;28;20470;-85
2022/04/07 04:25:46;;;;;;;6.25;1.42;;;26.00;29.90;;;;;;5090451;28;20038;-82
2022/04/07 04:28:13;;;;;;;4.20;1.15;;;26.20;29.80;;;;;;5068884;28;20028;-83
2022/04/07 04:30:39;;;;;;;6.22;0.70;;;26.30;29.00;;;;;;5085700;28;20055;-83
2022/04/07 04:33:08;;;;;;;5.45;2.33;;;26.40;28.40;;;;;;5066676;28;20032;-83
2022/04/07 04:35:34;;;;;;;7.78;0.57;;;26.50;28.60;;;;;;5068461;28;20585;-82
2022/04/07 04:38:00;;;;;;;8.40;1.45;;;26.60;28.70;;;;;;5083391;28;20174;-82
2022/04/07 04:40:26;;;;;;;11.90;3.47;;;26.80;28.90;;;;;;5084054;28;20020;-82
2022/04/07 04:42:52;;;;;;;2.67;1.35;;;26.80;28.90;;;;;;5076885;28;20035;-82
2022/04/07 04:45:21;;;;;;;6.78;0.30;;;26.90;29.20;;;;;;5081351;28;20486;-82
2022/04/07 04:47:52;;;;;;;1.52;0.20;;;27.00;29.20;;;;;;5065110;28;20032;-84
2022/04/07 04:50:19;;;;;;;7.25;0.45;;;27.10;29.40;;;;;;5080266;28;20024;-81
2022/04/07 04:52:45;;;;;;;2.55;2.25;;;27.30;29.70;;;;;;5103262;28;20057;-83
2022/04/07 04:55:11;;;;;;;12.98;2.47;;;27.60;29.40;;;;;;5094497;28;20027;-80
2022/04/07 04:57:37;;;;;;;2.20;2.00;;;27.40;29.60;;;;;;5072026;28;20024;-81
2022/04/07 05:00:07;;;;;;;7.28;1.83;;;27.20;30.10;;;;;;5069970;28;20024;-82
2022/04/07 05:02:33;;;;;;;2.42;2.13;;;27.40;30.70;;;;;;5073153;28;20055;-82
2022/04/07 05:04:59;;;;;;;2.70;1.58;;;27.70;30.50;;;;;;5088038;28;20024;-81
2022/04/07 05:07:31;;;;;;;0.55;0.52;;;27.60;29.90;;;;;;5080587;28;20035;-81
2022/04/07 05:09:59;;;;;;;4.75;1.83;;;27.70;30.20;;;;;;5088871;28;20033;-82
2022/04/07 05:12:26;;;;;;;14.35;4.85;;;28.00;29.70;;;;;;5090133;28;20036;-81
2022/04/07 05:14:54;;;;;;;5.30;2.78;;;28.00;29.60;;;;;;5091177;28;20023;-79
2022/04/07 05:17:20;;;;;;;13.60;4.13;;;28.00;28.70;;;;;;5068973;28;20020;-82
2022/04/07 05:19:46;;;;;;;1.10;0.95;;;28.10;28.70;;;;;;5087606;28;20044;-80
2022/04/07 05:22:12;;;;;;;3.97;0.95;;;28.10;29.30;;;;;;5088070;28;20027;-82
2022/04/07 05:24:39;;;;;;;6.10;1.60;;;28.20;29.50;;;;;;5088372;28;20028;-80
2022/04/07 05:27:05;;;;;;;2.35;1.52;;;28.30;29.40;;;;;;5089820;28;20064;-81
2022/04/07 05:29:31;;;;;;;9.68;2.63;;;28.30;29.40;;;;;;5088501;28;20050;-82
2022/04/07 05:31:57;;;;;;;0.55;0.55;;;28.30;29.60;;;;;;5071803;28;20024;-82
2022/04/07 05:34:23;;;;;;;0.32;0.32;;;28.40;29.80;;;;;;5063650;28;20025;-82
2022/04/07 05:36:49;;;;;;;1.40;1.30;;;28.60;28.90;;;;;;5062269;28;20036;-84
2022/04/07 05:39:15;;;;;;;1.40;1.35;;;28.70;28.60;;;;;;5083899;28;20016;-81
2022/04/07 05:41:44;;;;;;;6.78;2.70;;;28.80;28.50;;;;;;5082148;28;20036;-82
2022/04/07 05:44:10;;;;;;;5.40;2.30;;;29.00;27.30;;;;;;5079465;28;20027;-79
2022/04/07 05:46:36;;;;;;;1.17;0.15;;;28.90;27.70;;;;;;5085879;28;20098;-82
2022/04/07 05:49:02;;;;;;;1.15;1.05;;;29.10;28.50;;;;;;5065994;28;20047;-81
2022/04/07 05:51:28;;;;;;;2.28;1.30;;;29.20;27.90;;;;;;5083055;28;20088;-81
2022/04/07 05:53:55;;;;;;;2.67;0.60;;;29.30;27.00;;;;;;5084675;28;20055;-83
2022/04/07 05:56:23;;;;;;;2.22;1.60;;;29.40;26.40;;;;;;5063722;28;20039;-83
2022/04/07 05:58:52;;;;;;;6.13;2.03;;;29.30;26.50;;;;;;5082337;28;20081;-86
2022/04/07 06:01:20;;;;;;;9.38;2.38;;;29.50;25.80;;;;;;5064235;28;20024;-81
2022/04/07 06:03:46;;;;;;;0.00;0.00;;;29.50;25.10;;;;;;5080908;28;20044;-84
2022/04/07 06:06:13;;;;;;;1.42;1.33;;;29.40;25.30;;;;;;5066202;28;20028;-84
2022/04/07 06:08:39;;;;;;;3.33;0.10;;;29.70;25.00;;;;;;5080428;28;20028;-87
2022/04/07 06:11:05;;;;;;;9.50;2.10;;;30.00;25.30;;;;;;5089174;28;20465;-81
2022/04/07 06:13:32;;;;;;;5.65;5.25;;;30.20;23.40;;;;;;5087201;28;20069;-82
2022/04/07 06:15:58;;;;;;;1.35;0.47;;;30.20;23.90;;;;;;5084505;28;20111;-83
2022/04/07 06:18:24;;;;;;;0.20;0.20;;;30.10;23.00;;;;;;5086012;28;20024;-83
2022/04/07 06:20:50;;;;;;;2.05;1.95;;;30.10;23.70;;;;;;5086221;28;20038;-79
2022/04/07 06:23:26;;;;;;;0.00;0.00;;;30.20;23.50;;;;;;5075594;28;20024;-82
2022/04/07 06:25:55;;;;;;;3.55;1.58;;;30.40;22.30;;;;;;5064401;28;20491;-84
2022/04/07 06:29:00;;;;;;;7.30;1.80;;;30.40;21.60;;;;;;5085298;28;20024;-82
2022/04/07 06:31:26;;;;;;;0.75;0.10;;;30.60;22.10;;;;;;5072252;28;20036;-82
2022/04/07 06:34:14;;;;;;;0.20;0.20;;;30.80;22.20;;;;;;5069524;28;20099;-83
2022/04/07 06:36:49;;;;;;;1.08;0.25;;;30.60;21.70;;;;;;5062373;28;20368;-84
2022/04/07 06:39:47;;;;;;;0.38;0.38;;;30.80;22.30;;;;;;5073429;28;20024;-84
2022/04/07 06:42:15;;;;;;;0.00;0.00;;;30.80;21.60;;;;;;5069438;28;20052;-83
2022/04/07 06:45:00;;;;;;;9.60;2.47;;;30.90;21.90;;;;;;5058782;28;20028;-84
2022/04/07 06:47:27;;;;;;;0.00;0.00;;;31.00;22.20;;;;;;5077068;28;20471;-82
2022/04/07 06:49:53;;;;;;;0.10;0.10;;;31.20;21.90;;;;;;5081898;28;20039;-83
2022/04/07 06:52:19;;;;;;;0.00;0.00;;;31.40;22.30;;;;;;5080139;28;20028;-85
2022/04/07 06:54:47;;;;;;;0.00;0.00;;;31.30;22.40;;;;;;5073551;28;20036;-84
2022/04/07 06:57:13;;;;;;;0.00;0.00;;;31.30;22.10;;;;;;5059601;28;20379;-82
2022/04/07 06:59:40;;;;;;;0.00;0.00;;;31.20;22.00;;;;;;5063218;28;20090;-82
2022/04/07 07:02:06;;;;;;;26.92;2.92;;;31.40;22.30;;;;;;5057728;28;20134;-83
2022/04/07 07:04:33;;;;;;;2.28;2.17;;;31.70;21.60;;;;;;5079168;28;20043;-82
2022/04/07 07:06:59;;;;;;;10.23;9.52;;;31.50;20.30;;;;;;5063667;28;20028;-82
2022/04/07 07:09:25;;;;;;;0.00;0.00;;;31.40;20.10;;;;;;5062645;28;20058;-84
2022/04/07 07:11:54;;;;;;;0.52;0.52;;;31.20;21.20;;;;;;5080314;28;20052;-85
2022/04/07 07:14:20;;;;;;;3.63;0.90;;;31.30;21.30;;;;;;5067228;28;20037;-83
2022/04/07 07:16:48;;;;;;;16.85;3.85;;;31.30;20.20;;;;;;5080439;28;20052;-84
2022/04/07 07:19:16;;;;;;;1.17;1.17;;;31.40;20.40;;;;;;5084436;28;20017;-83
2022/04/07 07:21:42;;;;;;;1.05;0.22;;;31.10;20.50;;;;;;5068582;28;20031;-82
2022/04/07 07:24:08;;;;;;;0.77;0.63;;;31.20;20.40;;;;;;5064970;28;20028;-83
2022/04/07 07:26:36;;;;;;;3.75;1.45;;;31.40;20.40;;;;;;5084590;28;20044;-81
2022/04/07 07:29:02;;;;;;;4.63;0.55;;;31.40;20.30;;;;;;5080314;28;20023;-83
2022/04/07 07:31:30;;;;;;;2.72;2.00;;;31.50;20.40;;;;;;5084591;28;20501;-83
2022/04/07 07:33:56;;;;;;;4.45;4.15;;;31.40;20.40;;;;;;5086451;28;20023;-81
2022/04/07 07:36:26;;;;;;;28.38;16.88;;;31.70;20.00;;;;;;5088258;28;20557;-83
2022/04/07 07:38:54;;;;;;;0.00;0.00;;;31.60;19.80;;;;;;5068671;28;20387;-83
2022/04/07 07:41:20;;;;;;;0.00;0.00;;;31.30;19.70;;;;;;5084749;28;20027;-81
2022/04/07 07:43:46;;;;;;;12.85;0.47;;;31.30;20.20;;;;;;5110156;28;20016;-82
2022/04/07 07:46:12;;;;;;;0.68;0.68;;;31.50;20.50;;;;;;5093547;28;20032;-82
2022/04/07 07:48:38;;;;;;;0.00;0.00;;;31.60;20.60;;;;;;5088209;28;20117;-82
2022/04/07 07:51:05;;;;;;;1.25;0.55;;;31.90;21.10;;;;;;5089481;28;20020;-84
2022/04/07 07:53:31;;;;;;;0.70;0.25;;;32.00;20.40;;;;;;5079285;28;20410;-84
2022/04/07 07:55:58;;;;;;;4.85;1.45;;;32.00;20.30;;;;;;5079302;28;20490;-86
2022/04/07 07:58:25;;;;;;;0.00;0.00;;;32.20;20.10;;;;;;5087091;28;20024;-83
2022/04/07 08:00:51;;;;;;;0.03;0.03;;;32.40;20.10;;;;;;5072806;28;20028;-83
2022/04/07 08:03:17;;;;;;;20.77;18.73;;;32.50;19.40;;;;;;5081911;28;20493;-83
2022/04/07 08:05:46;;;;;;;5.00;1.55;;;32.30;19.70;;;;;;5082832;28;20024;-83
2022/04/07 08:08:12;;;;;;;0.65;0.55;;;32.30;20.50;;;;;;5086520;28;20020;-83
2022/04/07 08:10:39;;;;;;;1.90;0.65;;;32.00;20.50;;;;;;5078774;28;20051;-83
2022/04/07 08:13:05;;;;;;;1.58;0.47;;;31.90;20.10;;;;;;5083489;28;20028;-83
2022/04/07 08:15:32;;;;;;;0.00;0.00;;;31.90;20.30;;;;;;5086078;28;20115;-82
2022/04/07 08:17:58;;;;;;;0.00;0.00;;;31.80;19.80;;;;;;5066836;28;20027;-83
2022/04/07 08:20:24;;;;;;;0.32;0.32;;;31.80;19.40;;;;;;5068332;28;20048;-83
2022/04/07 08:22:50;;;;;;;0.00;0.00;;;32.00;20.00;;;;;;5076833;28;20031;-82
2022/04/07 08:25:17;;;;;;;0.00;0.00;;;32.20;20.20;;;;;;5080777;28;20020;-81
2022/04/07 08:27:45;;;;;;;0.43;0.40;;;32.10;20.30;;;;;;5097055;28;20028;-80
2022/04/07 08:30:11;;;;;;;6.93;2.47;;;32.10;20.50;;;;;;5084495;28;20495;-83
2022/04/07 08:32:38;;;;;;;7.05;2.03;;;32.00;20.40;;;;;;5066154;28;20042;-82
2022/04/07 08:35:05;;;;;;;1.80;1.65;;;31.70;21.30;;;;;;5069176;28;20355;-83
2022/04/07 08:37:31;;;;;;;48.50;11.75;;;31.50;22.10;;;;;;5066326;28;20043;-82
2022/04/07 08:40:04;;;;;;;1.85;1.67;;;31.40;22.80;;;;;;5080220;28;20035;-83
2022/04/07 08:42:32;;;;;;;6.63;1.20;;;31.20;22.80;;;;;;5062696;28;20154;-84
2022/04/07 08:45:01;;;;;;;1.95;1.05;;;30.90;22.30;;;;;;5064451;28;20027;-84
2022/04/07 08:47:28;;;;;;;0.25;0.25;;;30.90;22.50;;;;;;5083839;28;20017;-84
2022/04/07 08:49:55;;;;;;;3.72;1.88;;;30.80;23.40;;;;;;5084248;28;20474;-83
2022/04/07 08:52:24;;;;;;;43.97;12.25;;;30.90;24.10;;;;;;5079319;28;20437;-83
2022/04/07 08:54:50;;;;;;;0.47;0.47;;;30.70;25.00;;;;;;5084742;28;20016;-82
2022/04/07 08:57:16;;;;;;;4.75;2.33;;;30.80;25.50;;;;;;5083077;28;20103;-84
2022/04/07 08:59:43;;;;;;;32.88;2.88;;;30.80;25.20;;;;;;5067269;28;20042;-81
2022/04/07 09:02:10;;;;;;;16.33;2.28;;;30.80;26.60;;;;;;5081170;28;20052;-83
2022/04/07 09:04:39;;;;;;;0.32;0.32;;;30.40;27.90;;;;;;5061389;28;20039;-82
2022/04/07 09:07:09;;;;;;;3.80;1.08;;;30.30;28.80;;;;;;5060195;28;20028;-85
2022/04/07 09:09:36;;;;;;;19.45;4.15;;;30.30;30.10;;;;;;5061672;28;20062;-83
2022/04/07 09:12:05;;;;;;;10.15;2.35;;;30.10;30.80;;;;;;5064922;28;20028;-84
2022/04/07 09:14:35;;;;;;;2.53;2.17;;;29.80;31.80;;;;;;5081353;28;20028;-84
2022/04/07 09:17:02;;;;;;;9.13;3.13;;;29.50;32.70;;;;;;5080610;28;20056;-82
2022/04/07 09:19:30;;;;;;;0.65;0.65;;;29.40;33.10;;;;;;5084445;28;20020;-81
2022/04/07 09:22:13;;;;;;;0.28;0.28;;;29.40;33.60;;;;;;5047448;28;20105;-81
2022/04/07 09:24:40;;;;;;;21.83;3.78;;;29.40;34.30;;;;;;5086727;28;20024;-82
2022/04/07 09:27:16;;;;;;;2.55;2.35;;;29.30;34.60;;;;;;5083298;28;20157;-81
2022/04/07 09:29:44;;;;;;;66.90;5.47;;;28.90;31.90;;;;;;5082320;28;20059;-83
2022/04/07 09:32:20;;;;;;;4.85;1.25;;;28.70;30.40;;;;;;5089187;28;20028;-84
2022/04/07 09:34:55;;;;;;;8.40;3.10;;;28.40;30.20;;;;;;5078242;28;20547;-82
2022/04/07 09:37:23;;;;;;;8.15;1.67;;;28.30;29.90;;;;;;5066996;28;20025;-81
2022/04/07 09:40:11;;;;;;;0.05;0.05;;;28.40;29.80;;;;;;5084113;28;20552;-82
2022/04/07 09:42:44;;;;;;;5.80;5.03;;;28.30;30.10;;;;;;5069845;28;20572;-83
2022/04/07 09:45:12;;;;;;;19.70;0.70;;;28.30;30.70;;;;;;5081391;28;20020;-83
2022/04/07 09:47:43;;;;;;;1.40;0.50;;;28.20;31.20;;;;;;5081518;28;20031;-85
2022/04/07 09:50:24;;;;;;;12.27;7.15;;;28.00;31.60;;;;;;5078499;28;20020;-83
2022/04/07 09:52:59;;;;;;;7.22;1.85;;;27.90;32.00;;;;;;5063206;28;20124;-82
2022/04/07 09:55:42;;;;;;;1.35;0.43;;;27.70;32.00;;;;;;5078153;28;20044;-85
2022/04/07 09:58:11;;;;;;;1.77;1.15;;;27.60;32.60;;;;;;5070312;28;20342;-83
2022/04/07 10:00:38;;;;;;;0.70;0.55;;;27.60;32.80;;;;;;5081396;28;20028;-82
2022/04/07 10:03:06;;;;;;;6.47;3.80;;;27.50;33.00;;;;;;5074052;28;20064;-81
2022/04/07 10:05:34;;;;;;;2.53;1.27;;;27.50;33.30;;;;;;5057241;28;20520;-82
2022/04/07 10:08:02;;;;;;;3.80;3.47;;;27.60;33.40;;;;;;5077722;28;20024;-79
2022/04/07 10:10:34;;;;;;;11.35;2.20;;;27.60;34.00;;;;;;5076365;28;20055;-85
2022/04/07 10:13:06;;;;;;;1.35;0.80;;;27.30;34.10;;;;;;5079036;28;20096;-81
2022/04/07 10:15:36;;;;;;;6.22;5.70;;;27.00;34.60;;;;;;5074663;28;20020;-81
2022/04/07 10:18:09;;;;;;;5.30;0.90;;;27.00;34.40;;;;;;5077146;28;20386;-83
2022/04/07 10:20:39;;;;;;;37.67;3.78;;;27.00;34.40;;;;;;5082345;28;20024;-80
2022/04/07 10:23:35;;;;;;;13.50;2.67;;;27.00;34.40;;;;;;5073611;28;20474;-83
2022/04/07 10:26:05;;;;;;;2.72;2.08;;;27.10;34.50;;;;;;5069144;28;20441;-82
2022/04/07 10:28:32;;;;;;;0.95;0.40;;;27.00;34.70;;;;;;5061616;28;20085;-81
2022/04/07 10:30:59;;;;;;;7.65;2.78;;;26.70;33.40;;;;;;5098993;28;20085;-82
2022/04/07 10:33:45;;;;;;;2.45;2.10;;;26.50;31.90;;;;;;5074539;28;20505;-81
2022/04/07 10:36:20;;;;;;;3.65;1.45;;;26.20;32.10;;;;;;5078898;28;20470;-83
2022/04/07 10:38:49;;;;;;;0.40;0.35;;;25.90;32.60;;;;;;5074283;28;20590;-79
2022/04/07 10:41:40;;;;;;;3.10;1.23;;;25.80;33.00;;;;;;5075455;28;20043;-80
2022/04/07 10:44:10;;;;;;;4.70;2.35;;;25.80;33.50;;;;;;5057575;28;20035;-83
2022/04/07 10:46:36;;;;;;;11.38;0.25;;;25.90;33.40;;;;;;5078909;28;20034;-80
2022/04/07 10:49:19;;;;;;;1.85;1.38;;;25.70;33.80;;;;;;5078639;28;20527;-82
2022/04/07 10:51:56;;;;;;;7.95;2.85;;;25.50;34.20;;;;;;5078897;28;20078;-80
2022/04/07 10:54:30;;;;;;;0.20;0.20;;;25.40;34.70;;;;;;5080952;28;20032;-82
2022/04/07 10:57:01;;;;;;;0.32;0.32;;;25.30;34.80;;;;;;5081478;28;20055;-82
2022/04/07 10:59:29;;;;;;;5.85;1.13;;;25.40;35.00;;;;;;5081190;28;20023;-81
2022/04/07 11:02:06;;;;;;;1.70;0.68;;;25.30;35.80;;;;;;5068316;28;20032;-81
2022/04/07 11:04:42;;;;;;;35.55;27.88;;;25.10;36.20;;;;;;5066461;28;20032;-81
2022/04/07 11:07:16;;;;;;;1.45;1.35;;;25.20;36.60;;;;;;5083140;28;20036;-82
2022/04/07 11:09:58;;;;;;;3.60;0.63;;;25.30;36.70;;;;;;5079792;28;20062;-81
2022/04/07 11:12:31;;;;;;;0.00;0.00;;;25.20;37.10;;;;;;5078869;28;20490;-80
2022/04/07 11:15:03;;;;;;;8.70;7.93;;;25.10;37.50;;;;;;5062668;28;20383;-81
2022/04/07 11:17:47;;;;;;;8.80;7.97;;;25.20;37.20;;;;;;5079218;28;20367;-80
2022/04/07 11:20:26;;;;;;;2.83;1.83;;;25.30;37.60;;;;;;5081055;28;20032;-81
2022/04/07 11:22:56;;;;;;;12.40;9.48;;;25.00;38.30;;;;;;5085129;28;20028;-82
2022/04/07 11:25:35;;;;;;;0.98;0.30;;;24.90;38.80;;;;;;5065217;28;20494;-82
2022/04/07 11:28:14;;;;;;;0.08;0.08;;;24.80;39.50;;;;;;5071921;28;20106;-81
2022/04/07 11:31:00;;;;;;;0.63;0.63;;;24.70;39.90;;;;;;5086708;28;20108;-80
2022/04/07 11:33:29;;;;;;;0.00;0.00;;;24.60;40.40;;;;;;5063717;28;20068;-80
2022/04/07 11:36:02;;;;;;;0.00;0.00;;;24.70;40.30;;;;;;5087086;28;20012;-81
2022/04/07 11:38:33;;;;;;;1.02;0.73;;;24.60;40.70;;;;;;5081952;28;20119;-82
2022/04/07 11:41:11;;;;;;;2.42;2.28;;;24.50;40.90;;;;;;5080088;28;20054;-81
2022/04/07 11:43:41;;;;;;;0.05;0.05;;;24.40;41.30;;;;;;5087665;28;20471;-80
2022/04/07 11:46:07;;;;;;;0.63;0.63;;;24.30;42.10;;;;;;5070962;28;20087;-81
2022/04/07 11:48:38;;;;;;;0.00;0.00;;;24.20;42.60;;;;;;5062119;28;20024;-80
2022/04/07 11:51:23;;;;;;;0.00;0.00;;;24.40;42.90;;;;;;5064024;28;20035;-81
2022/04/07 11:53:53;;;;;;;0.00;0.00;;;24.40;42.90;;;;;;5080210;28;20506;-81
2022/04/07 11:56:21;;;;;;;0.15;0.15;;;24.50;43.00;;;;;;5078093;28;20516;-81
2022/04/07 11:59:11;;;;;;;0.08;0.08;;;24.40;43.20;;;;;;5062990;28;20479;-81
2022/04/07 12:01:39;;;;;;;0.00;0.00;;;24.20;43.80;;;;;;5080809;28;20421;-81
2022/04/07 12:04:09;;;;;;;25.10;5.03;;;24.00;44.20;;;;;;5067287;28;20050;-81
2022/04/07 12:06:37;;;;;;;1.70;1.60;;;23.90;44.70;;;;;;5098558;28;20114;-81
2022/04/07 12:09:05;;;;;;;27.55;5.57;;;23.50;45.60;;;;;;5081572;28;20086;-82
2022/04/07 12:11:36;;;;;;;3.97;3.78;;;23.60;45.50;;;;;;5083573;28;20505;-81
2022/04/07 12:14:09;;;;;;;0.65;0.65;;;23.70;45.60;;;;;;5099560;28;20667;-80
2022/04/07 12:16:42;;;;;;;1.75;1.65;;;23.50;45.70;;;;;;5082862;28;20016;-81
2022/04/07 12:19:08;;;;;;;0.50;0.43;;;23.50;45.90;;;;;;5100572;28;20389;-81
2022/04/07 12:21:54;;;;;;;0.17;0.17;;;23.20;46.20;;;;;;5096094;28;20023;-81
2022/04/07 12:24:21;;;;;;;0.03;0.03;;;23.30;47.10;;;;;;5083871;28;20028;-80
2022/04/07 12:26:53;;;;;;;0.00;0.00;;;23.50;46.20;;;;;;5097075;28;20052;-81
2022/04/07 12:29:34;;;;;;;0.00;0.00;;;23.60;46.00;;;;;;5101257;28;20069;-80
2022/04/07 12:32:14;;;;;;;0.30;0.30;;;23.60;45.30;;;;;;5082502;28;20446;-81
2022/04/07 12:34:52;;;;;;;0.00;0.00;;;23.30;46.90;;;;;;5097413;28;20028;-80
2022/04/07 12:37:29;;;;;;;1.00;0.98;;;23.50;49.10;;;;;;5081599;28;20020;-80
2022/04/07 12:39:55;;;;;;;0.20;0.20;;;23.60;45.60;;;;;;5077680;28;20027;-81
2022/04/07 12:42:23;;;;;;;0.00;0.00;;;23.40;44.40;;;;;;5078274;28;20016;-80
2022/04/07 12:44:49;;;;;;;0.10;0.10;;;23.10;44.70;;;;;;5098216;28;20034;-83
2022/04/07 12:47:25;;;;;;;0.20;0.20;;;23.30;45.80;;;;;;5097719;28;20505;-82
2022/04/07 12:50:10;;;;;;;0.00;0.00;;;23.40;45.70;;;;;;5082300;28;20473;-83
2022/04/07 12:52:43;;;;;;;0.00;0.00;;;23.70;45.60;;;;;;5078455;28;20024;-81
2022/04/07 12:55:12;;;;;;;4.10;3.72;;;23.40;46.10;;;;;;5099620;28;20546;-81